createdAt,value
2019-06-26T00:00:26.426Z,12.50
2019-06-26T00:02:56.705Z,12.67
2019-06-26T00:05:26.590Z,12.73
2019-06-26T00:07:57.167Z,11.10
2019-06-26T00:10:27.221Z,13.13
2019-06-26T00:12:57.884Z,12.00
2019-06-26T00:15:28.611Z,11.53
2019-06-26T00:17:59.276Z,11.73
2019-06-26T00:20:28.874Z,12.10
2019-06-26T00:22:59.196Z,11.57
2019-06-26T00:25:29.772Z,12.37
2019-06-26T00:28:00.464Z,11.60
2019-06-26T00:30:30.794Z,11.20
2019-06-26T00:33:00.764Z,11.30
2019-06-26T00:35:31.374Z,11.30
2019-06-26T00:38:01.719Z,11.90
2019-06-26T00:40:32.284Z,11.70
2019-06-26T00:43:02.534Z,12.67
2019-06-26T00:45:32.578Z,12.00
2019-06-26T00:48:02.458Z,11.43
2019-06-26T00:50:32.544Z,11.63
2019-06-26T00:53:02.884Z,11.40
2019-06-26T00:55:33.142Z,11.70
2019-06-26T00:58:05.401Z,11.47
2019-06-26T01:00:40.872Z,10.80
2019-06-26T01:03:11.206Z,12.43
2019-06-26T01:05:41.942Z,11.73
2019-06-26T01:08:11.935Z,11.17
2019-06-26T01:10:41.843Z,11.80
2019-06-26T01:13:11.522Z,11.00
2019-06-26T01:15:41.798Z,11.60
2019-06-26T01:18:11.834Z,12.10
2019-06-26T01:20:42.191Z,11.57
2019-06-26T01:23:11.717Z,11.40
2019-06-26T01:25:43.120Z,11.83
2019-06-26T01:28:12.735Z,13.13
2019-06-26T01:30:43.191Z,11.80
2019-06-26T01:33:13.279Z,11.53
2019-06-26T01:35:43.168Z,13.07
2019-06-26T01:38:13.527Z,12.70
2019-06-26T01:40:43.160Z,12.80
2019-06-26T01:43:13.559Z,12.23
2019-06-26T01:45:43.577Z,11.80
2019-06-26T01:48:14.262Z,12.37
2019-06-26T01:51:03.472Z,12.03
2019-06-26T01:53:33.411Z,12.50
2019-06-26T01:56:03.840Z,12.50
2019-06-26T01:58:33.449Z,13.30
2019-06-26T02:01:03.293Z,12.80
2019-06-26T02:03:33.596Z,13.50
2019-06-26T02:06:03.233Z,12.23
2019-06-26T02:08:33.658Z,14.37
2019-06-26T02:11:03.695Z,12.53
2019-06-26T02:13:34.515Z,12.13
2019-06-26T02:16:05.538Z,12.67
2019-06-26T02:18:38.998Z,13.53
2019-06-26T02:21:08.634Z,13.60
2019-06-26T02:23:38.563Z,12.37
2019-06-26T02:26:08.420Z,13.60
2019-06-26T02:28:40.155Z,13.10
2019-06-26T02:31:10.126Z,13.93
2019-06-26T02:33:40.467Z,14.63
2019-06-26T02:36:10.273Z,13.60
2019-06-26T02:38:40.066Z,14.00
2019-06-26T02:41:10.415Z,13.83
2019-06-26T02:43:40.281Z,14.10
2019-06-26T02:46:10.531Z,14.63
2019-06-26T02:48:41.105Z,13.80
2019-06-26T02:51:12.636Z,14.50
2019-06-26T02:53:43.400Z,14.30
2019-06-26T02:56:13.732Z,15.10
2019-06-26T02:58:43.596Z,14.53
2019-06-26T03:01:13.606Z,14.17
2019-06-26T03:03:44.033Z,13.80
2019-06-26T03:06:14.099Z,14.23
2019-06-26T03:08:44.381Z,14.27
2019-06-26T03:11:15.157Z,13.33
2019-06-26T03:13:45.099Z,14.77
2019-06-26T03:16:15.492Z,14.33
2019-06-26T03:18:45.382Z,14.70
2019-06-26T03:21:17.203Z,14.40
2019-06-26T03:23:47.362Z,14.35
2019-06-26T03:26:17.201Z,14.83
2019-06-26T03:28:47.126Z,15.17
2019-06-26T03:31:19.724Z,14.40
2019-06-26T03:33:49.283Z,14.30
2019-06-26T03:36:23.706Z,14.23
2019-06-26T03:38:53.936Z,13.50
2019-06-26T03:41:24.372Z,14.90
2019-06-26T03:43:54.687Z,13.63
2019-06-26T03:46:25.513Z,15.03
2019-06-26T03:48:55.438Z,15.13
2019-06-26T03:51:25.456Z,15.13
2019-06-26T03:53:55.795Z,14.77
2019-06-26T03:56:26.172Z,15.37
2019-06-26T03:58:56.583Z,16.30
2019-06-26T04:01:26.581Z,14.27
2019-06-26T04:03:57.695Z,15.90
2019-06-26T04:06:27.981Z,15.57
2019-06-26T04:08:57.933Z,14.97
2019-06-26T04:11:27.383Z,16.00
2019-06-26T04:13:56.959Z,16.17
2019-06-26T04:16:27.335Z,16.47
2019-06-26T04:18:58.515Z,16.00
2019-06-26T04:21:28.521Z,14.80
2019-06-26T04:23:58.004Z,16.37
2019-06-26T04:26:28.112Z,15.43
2019-06-26T04:28:57.515Z,14.30
2019-06-26T04:31:26.999Z,15.13
2019-06-26T04:33:56.366Z,15.47
2019-06-26T04:36:26.580Z,15.77
2019-06-26T04:38:56.486Z,14.77
2019-06-26T04:41:26.515Z,16.00
2019-06-26T04:43:56.330Z,15.80
2019-06-26T04:46:26.410Z,15.23
2019-06-26T04:48:56.688Z,16.23
2019-06-26T04:51:26.482Z,15.90
2019-06-26T04:53:57.282Z,16.33
2019-06-26T04:56:26.990Z,16.20
2019-06-26T04:58:56.378Z,16.90
2019-06-26T05:01:26.070Z,17.60
2019-06-26T05:03:55.553Z,16.40
2019-06-26T05:06:25.613Z,17.07
2019-06-26T05:08:55.723Z,16.73
2019-06-26T05:11:28.497Z,18.40
2019-06-26T05:13:58.788Z,18.33
2019-06-26T05:16:29.041Z,17.60
2019-06-26T05:18:59.381Z,18.80
2019-06-26T05:21:29.078Z,17.90
2019-06-26T05:23:59.192Z,16.87
2019-06-26T05:26:31.502Z,19.47
2019-06-26T05:29:02.654Z,18.20
2019-06-26T05:31:32.399Z,18.20
2019-06-26T05:34:03.453Z,17.70
2019-06-26T05:36:34.537Z,19.03
2019-06-26T05:39:07.561Z,19.87
2019-06-26T05:41:38.204Z,18.83
2019-06-26T05:44:08.270Z,19.87
2019-06-26T05:46:39.750Z,18.03
2019-06-26T05:49:10.159Z,19.97
2019-06-26T05:51:42.267Z,20.33
2019-06-26T05:54:12.205Z,21.30
2019-06-26T05:56:45.264Z,20.23
2019-06-26T05:59:13.978Z,21.43
2019-06-26T06:01:44.282Z,21.90
2019-06-26T06:04:18.814Z,21.20
2019-06-26T06:06:48.317Z,20.10
2019-06-26T06:09:18.961Z,20.73
2019-06-26T06:11:49.828Z,21.80
2019-06-26T06:14:21.624Z,20.48
2019-06-26T06:16:51.735Z,20.77
2019-06-26T06:19:21.859Z,20.07
2019-06-26T06:21:52.589Z,21.40
2019-06-26T06:24:22.692Z,21.90
2019-06-26T06:26:53.878Z,22.27
2019-06-26T06:29:24.333Z,21.07
2019-06-26T06:31:58.211Z,21.50
2019-06-26T06:34:28.700Z,20.50
2019-06-26T06:37:01.321Z,22.10
2019-06-26T06:39:45.323Z,22.80
2019-06-26T06:42:16.262Z,21.43
2019-06-26T06:44:46.657Z,21.07
2019-06-26T06:47:16.370Z,21.30
2019-06-26T06:49:46.545Z,21.50
2019-06-26T06:52:18.371Z,21.97
2019-06-26T06:54:49.240Z,20.40
2019-06-26T06:57:19.880Z,21.30
2019-06-26T06:59:50.832Z,21.57
2019-06-26T07:02:21.324Z,21.43
2019-06-26T07:04:54.125Z,23.93
2019-06-26T07:07:29.287Z,21.80
2019-06-26T07:09:59.082Z,22.47
2019-06-26T07:12:29.548Z,21.80
2019-06-26T07:14:59.507Z,20.63
2019-06-26T07:17:30.885Z,21.87
2019-06-26T07:20:01.566Z,21.80
2019-06-26T07:22:34.454Z,21.57
2019-06-26T07:25:06.010Z,21.03
2019-06-26T07:27:38.255Z,22.17
2019-06-26T07:30:10.577Z,22.87
2019-06-26T07:32:40.863Z,20.00
2019-06-26T07:35:10.798Z,20.93
2019-06-26T07:37:41.321Z,21.87
2019-06-26T07:40:11.350Z,23.40
2019-06-26T07:42:41.638Z,21.20
2019-06-26T07:45:24.189Z,21.90
2019-06-26T07:47:53.840Z,23.80
2019-06-26T07:50:31.376Z,21.13
2019-06-26T07:53:04.815Z,48.53
2019-06-26T07:55:40.481Z,37.50
2019-06-26T07:58:07.561Z,22.03
2019-06-26T08:00:38.197Z,24.03
2019-06-26T08:03:13.842Z,22.20
2019-06-26T08:05:50.257Z,21.13
2019-06-26T08:08:20.520Z,20.80
2019-06-26T08:10:52.074Z,21.00
2019-06-26T08:13:24.256Z,22.40
2019-06-26T08:16:02.083Z,22.47
2019-06-26T08:19:00.773Z,23.70
2019-06-26T08:21:12.542Z,21.03
2019-06-26T08:23:47.603Z,21.70
2019-06-26T08:26:19.198Z,21.73
2019-06-26T08:28:49.400Z,20.80
2019-06-26T08:31:22.033Z,21.23
2019-06-26T08:33:52.993Z,21.97
2019-06-26T08:36:25.148Z,22.00
2019-06-26T08:39:09.065Z,21.13
2019-06-26T08:41:40.784Z,21.37
2019-06-26T08:44:11.351Z,23.27
2019-06-26T08:46:44.303Z,21.20
2019-06-26T08:49:25.433Z,22.20
2019-06-26T08:51:54.642Z,20.43
2019-06-26T08:54:29.427Z,20.50
2019-06-26T08:57:01.081Z,20.50
2019-06-26T08:59:31.767Z,20.27
2019-06-26T09:02:03.678Z,20.57
2019-06-26T09:04:36.226Z,20.70
2019-06-26T09:07:09.813Z,20.30
2019-06-26T09:09:40.043Z,21.20
2019-06-26T09:12:12.455Z,20.57
2019-06-26T09:14:45.235Z,20.83
2019-06-26T09:17:19.858Z,20.60
2019-06-26T09:19:53.009Z,20.60
2019-06-26T09:22:24.340Z,19.80
2019-06-26T09:24:54.145Z,20.77
2019-06-26T09:27:27.047Z,19.70
2019-06-26T09:29:57.149Z,18.10
2019-06-26T09:32:28.193Z,19.43
2019-06-26T09:35:00.444Z,19.40
2019-06-26T09:37:32.808Z,18.43
2019-06-26T09:40:14.319Z,18.20
2019-06-26T09:42:44.434Z,19.17
2019-06-26T09:45:18.959Z,18.47
2019-06-26T09:47:51.492Z,18.90
2019-06-26T09:50:22.354Z,17.40
2019-06-26T09:52:52.381Z,19.30
2019-06-26T09:55:22.836Z,19.63
2019-06-26T09:57:55.806Z,19.27
2019-06-26T10:00:28.826Z,18.87
2019-06-26T10:03:03.779Z,20.03
2019-06-26T10:05:36.265Z,21.33
2019-06-26T10:08:10.106Z,19.73
2019-06-26T10:10:40.629Z,18.80
2019-06-26T10:13:10.647Z,18.00
2019-06-26T10:15:46.143Z,19.20
2019-06-26T10:18:14.608Z,18.50
2019-06-26T10:20:45.039Z,20.63
2019-06-26T10:23:14.771Z,20.47
2019-06-26T10:25:47.117Z,21.20
2019-06-26T10:28:21.222Z,19.40
2019-06-26T10:30:52.220Z,19.10
2019-06-26T10:33:22.779Z,19.40
2019-06-26T10:35:53.770Z,19.10
2019-06-26T10:38:24.166Z,19.37
2019-06-26T10:40:54.346Z,18.37
2019-06-26T10:43:25.175Z,19.93
2019-06-26T10:45:55.700Z,20.23
2019-06-26T10:48:25.335Z,18.37
2019-06-26T10:50:58.782Z,20.03
2019-06-26T10:53:27.526Z,19.70
2019-06-26T10:55:57.141Z,19.67
2019-06-26T10:58:28.153Z,20.77
2019-06-26T11:00:58.825Z,19.03
2019-06-26T11:03:29.878Z,20.20
2019-06-26T11:06:00.352Z,19.80
2019-06-26T11:08:31.243Z,20.30
2019-06-26T11:11:01.538Z,19.27
2019-06-26T11:13:31.508Z,19.90
2019-06-26T11:16:02.117Z,20.70
2019-06-26T11:18:32.096Z,19.83
2019-06-26T11:21:02.978Z,20.43
2019-06-26T11:23:33.756Z,20.80
2019-06-26T11:26:03.992Z,20.03
2019-06-26T11:28:33.826Z,18.50
2019-06-26T11:31:05.358Z,20.83
2019-06-26T11:33:38.757Z,20.67
2019-06-26T11:36:08.964Z,22.23
2019-06-26T11:38:39.435Z,21.70
2019-06-26T11:41:09.404Z,20.90
2019-06-26T11:43:39.531Z,20.80
2019-06-26T11:46:11.659Z,18.87
2019-06-26T11:48:42.557Z,19.40
2019-06-26T11:51:12.974Z,19.20
2019-06-26T11:53:43.492Z,18.80
2019-06-26T11:56:19.816Z,18.80
2019-06-26T11:58:49.877Z,18.90
2019-06-26T12:01:22.925Z,18.57
2019-06-26T12:03:54.651Z,18.77
2019-06-26T12:06:25.213Z,19.43
2019-06-26T12:08:55.906Z,18.40
2019-06-26T12:11:29.612Z,18.33
2019-06-26T12:14:08.618Z,18.17
2019-06-26T12:16:43.301Z,18.20
2019-06-26T12:19:12.925Z,17.47
2019-06-26T12:21:46.851Z,17.50
2019-06-26T12:24:26.442Z,17.60
2019-06-26T12:27:01.147Z,19.03
2019-06-26T12:29:49.364Z,18.00
2019-06-26T12:32:20.163Z,16.70
2019-06-26T12:34:51.482Z,18.57
2019-06-26T12:37:37.540Z,19.33
2019-06-26T12:40:09.742Z,19.00
2019-06-26T12:42:45.521Z,19.60
2019-06-26T12:45:19.089Z,19.50
2019-06-26T12:47:49.461Z,19.03
2019-06-26T12:50:34.567Z,18.80
2019-06-26T12:53:01.278Z,18.73
2019-06-26T12:55:52.820Z,18.77
2019-06-26T12:58:35.806Z,18.20
2019-06-26T13:01:10.131Z,18.00
2019-06-26T13:03:40.915Z,16.90
2019-06-26T13:06:15.288Z,16.80
2019-06-26T13:09:03.683Z,17.10
2019-06-26T13:11:56.021Z,16.40
2019-06-26T13:14:25.768Z,17.30
2019-06-26T13:17:02.253Z,17.20
2019-06-26T13:19:32.923Z,16.90
2019-06-26T13:22:05.378Z,16.47
2019-06-26T13:24:36.938Z,16.00
2019-06-26T13:27:09.222Z,16.60
2019-06-26T13:29:41.144Z,15.10
2019-06-26T13:32:11.308Z,13.97
2019-06-26T13:34:43.096Z,13.53
2019-06-26T13:37:13.345Z,14.10
2019-06-26T13:39:46.716Z,13.30
2019-06-26T13:42:19.884Z,12.77
2019-06-26T13:44:56.919Z,11.57
2019-06-26T13:47:33.430Z,12.03
2019-06-26T13:50:05.159Z,12.00
2019-06-26T13:52:35.361Z,12.03
2019-06-26T13:55:05.199Z,10.43
2019-06-26T13:57:36.084Z,11.90
2019-06-26T14:00:09.073Z,11.17
2019-06-26T14:02:40.450Z,12.17
2019-06-26T14:05:12.412Z,12.30
2019-06-26T14:07:45.986Z,12.60
2019-06-26T14:10:16.840Z,13.73
2019-06-26T14:12:47.100Z,13.27
2019-06-26T14:15:19.626Z,12.90
2019-06-26T14:17:51.690Z,12.97
2019-06-26T14:20:22.392Z,14.03
2019-06-26T14:22:52.255Z,14.37
2019-06-26T14:25:23.390Z,13.70
2019-06-26T14:27:53.827Z,12.83
2019-06-26T14:30:27.846Z,14.50
2019-06-26T14:32:57.932Z,12.90
2019-06-26T14:35:31.997Z,13.57
2019-06-26T14:38:03.147Z,13.58
2019-06-26T14:40:34.284Z,13.73
2019-06-26T14:43:08.309Z,13.70
2019-06-26T14:45:40.369Z,14.00
2019-06-26T14:48:10.162Z,14.07
2019-06-26T14:50:40.476Z,14.37
2019-06-26T14:53:10.368Z,14.50
2019-06-26T14:55:41.843Z,14.60
2019-06-26T14:58:12.481Z,14.63
2019-06-26T15:00:43.627Z,14.47
2019-06-26T15:03:13.630Z,15.37
2019-06-26T15:05:43.929Z,14.63
2019-06-26T15:08:15.978Z,14.17
2019-06-26T15:10:45.711Z,15.20
2019-06-26T15:13:15.735Z,14.00
2019-06-26T15:15:46.096Z,15.17
2019-06-26T15:18:16.595Z,15.30
2019-06-26T15:20:46.294Z,15.53
2019-06-26T15:23:19.067Z,15.30
2019-06-26T15:25:49.934Z,15.70
2019-06-26T15:28:19.783Z,15.87
2019-06-26T15:30:49.810Z,15.43
2019-06-26T15:33:19.329Z,15.17
2019-06-26T15:35:48.989Z,15.10
2019-06-26T15:38:18.744Z,15.97
2019-06-26T15:40:50.810Z,14.73
2019-06-26T15:43:20.387Z,15.27
2019-06-26T15:45:50.838Z,15.73
2019-06-26T15:48:20.982Z,14.90
2019-06-26T15:50:50.550Z,15.07
2019-06-26T15:53:20.596Z,13.90
2019-06-26T15:55:50.887Z,14.27
2019-06-26T15:58:20.354Z,14.20
2019-06-26T16:00:50.142Z,14.83
2019-06-26T16:03:20.077Z,14.53
2019-06-26T16:05:49.579Z,13.47
2019-06-26T16:08:19.602Z,14.27
2019-06-26T16:10:50.422Z,13.57
2019-06-26T16:13:19.948Z,13.53
2019-06-26T16:15:49.886Z,13.40
2019-06-26T16:18:27.915Z,13.57
2019-06-26T16:20:58.234Z,13.40
2019-06-26T16:23:27.904Z,12.20
2019-06-26T16:25:58.478Z,12.60
2019-06-26T16:28:29.007Z,12.80
2019-06-26T16:30:59.742Z,12.93
2019-06-26T16:33:29.247Z,12.50
2019-06-26T16:35:59.294Z,12.63
2019-06-26T16:38:32.395Z,12.37
2019-06-26T16:41:02.192Z,13.10
2019-06-26T16:43:32.222Z,12.70
2019-06-26T16:46:03.027Z,12.40
2019-06-26T16:48:33.686Z,12.13
2019-06-26T16:51:03.255Z,11.17
2019-06-26T16:53:35.490Z,10.67
2019-06-26T16:56:04.873Z,12.10
2019-06-26T16:58:35.802Z,13.40
2019-06-26T17:01:06.061Z,13.00
2019-06-26T17:03:35.602Z,11.87
2019-06-26T17:06:05.306Z,13.17
2019-06-26T17:08:35.279Z,12.93
2019-06-26T17:11:05.154Z,12.30
2019-06-26T17:13:34.976Z,12.63
2019-06-26T17:16:06.832Z,13.90
2019-06-26T17:18:36.403Z,12.80
2019-06-26T17:21:06.858Z,11.53
2019-06-26T17:23:36.405Z,12.23
2019-06-26T17:26:06.303Z,11.90
2019-06-26T17:28:35.977Z,11.53
2019-06-26T17:31:06.031Z,11.50
2019-06-26T17:33:37.147Z,10.83
2019-06-26T17:36:06.835Z,11.40
2019-06-26T17:38:38.644Z,10.83
2019-06-26T17:41:08.942Z,11.13
2019-06-26T17:43:39.238Z,11.00
2019-06-26T17:46:08.937Z,11.40
2019-06-26T17:48:39.314Z,9.90
2019-06-26T17:51:09.399Z,10.20
2019-06-26T17:53:39.094Z,9.90
2019-06-26T17:56:10.147Z,11.07
2019-06-26T17:58:41.229Z,10.80
2019-06-26T18:01:11.169Z,10.50
2019-06-26T18:03:41.536Z,11.00
2019-06-26T18:06:11.836Z,10.80
2019-06-26T18:08:44.026Z,11.10
2019-06-26T18:11:13.825Z,10.73
2019-06-26T18:13:43.368Z,10.90
2019-06-26T18:16:13.657Z,11.57
2019-06-26T18:18:44.197Z,11.20
2019-06-26T18:21:13.807Z,11.03
2019-06-26T18:23:44.163Z,10.60
2019-06-26T18:26:14.574Z,11.80
2019-06-26T18:28:44.420Z,11.47
2019-06-26T18:31:14.818Z,12.00
2019-06-26T18:33:44.472Z,12.10
2019-06-26T18:36:14.700Z,11.40
2019-06-26T18:38:46.600Z,12.10
2019-06-26T18:41:18.572Z,12.20
2019-06-26T18:43:47.508Z,13.40
2019-06-26T18:46:19.350Z,12.57
2019-06-26T18:48:50.670Z,13.20
2019-06-26T18:51:21.505Z,14.37
2019-06-26T18:53:53.880Z,12.83
2019-06-26T18:56:23.016Z,12.60
2019-06-26T18:58:54.141Z,12.20
2019-06-26T19:01:24.250Z,14.37
2019-06-26T19:03:54.866Z,13.17
2019-06-26T19:06:25.848Z,12.87
2019-06-26T19:08:55.922Z,13.00
2019-06-26T19:11:27.473Z,12.83
2019-06-26T19:13:58.756Z,12.97
2019-06-26T19:16:28.502Z,12.83
2019-06-26T19:18:59.233Z,12.83
2019-06-26T19:21:31.896Z,13.50
2019-06-26T19:24:10.160Z,12.40
2019-06-26T19:26:33.163Z,13.27
2019-06-26T19:29:03.606Z,14.10
2019-06-26T19:31:35.484Z,14.30
2019-06-26T19:34:05.560Z,14.73
2019-06-26T19:36:49.162Z,13.87
2019-06-26T19:39:09.526Z,14.87
2019-06-26T19:41:39.562Z,14.50
2019-06-26T19:44:10.651Z,14.57
2019-06-26T19:46:42.100Z,13.93
2019-06-26T19:49:14.886Z,14.10
2019-06-26T19:51:45.067Z,13.63
2019-06-26T19:54:26.468Z,13.53
2019-06-26T19:56:46.664Z,14.70
2019-06-26T19:59:18.473Z,13.63
2019-06-26T20:01:51.458Z,14.23
2019-06-26T20:04:21.483Z,13.30
2019-06-26T20:06:51.377Z,13.67
2019-06-26T20:09:22.685Z,13.23
2019-06-26T20:11:53.060Z,13.50
2019-06-26T20:14:22.689Z,14.43
2019-06-26T20:16:53.391Z,13.57
2019-06-26T20:19:22.989Z,14.37
2019-06-26T20:21:57.566Z,13.53
2019-06-26T20:24:43.027Z,13.30
2019-06-26T20:26:59.133Z,13.27
2019-06-26T20:29:28.677Z,13.77
2019-06-26T20:31:58.603Z,13.77
2019-06-26T20:34:33.672Z,13.77
2019-06-26T20:37:04.321Z,12.63
2019-06-26T20:39:35.518Z,13.20
2019-06-26T20:42:05.073Z,13.67
2019-06-26T20:44:35.464Z,15.10
2019-06-26T20:47:05.035Z,13.90
2019-06-26T20:49:34.585Z,13.70
2019-06-26T20:52:05.183Z,13.40
2019-06-26T20:54:35.695Z,14.40
2019-06-26T20:57:05.783Z,14.40
2019-06-26T20:59:36.120Z,14.67
2019-06-26T21:02:06.228Z,15.00
2019-06-26T21:04:55.595Z,13.87
2019-06-26T21:07:26.535Z,14.20
2019-06-26T21:09:58.332Z,15.17
2019-06-26T21:12:28.308Z,15.23
2019-06-26T21:14:58.855Z,15.00
2019-06-26T21:17:29.990Z,14.67
2019-06-26T21:20:00.311Z,16.33
2019-06-26T21:22:30.201Z,14.30
2019-06-26T21:25:13.668Z,14.57
2019-06-26T21:27:33.821Z,14.27
2019-06-26T21:30:04.274Z,15.00
2019-06-26T21:32:41.796Z,14.80
2019-06-26T21:35:11.355Z,15.20
2019-06-26T21:37:42.321Z,13.33
2019-06-26T21:40:12.840Z,15.10
2019-06-26T21:42:42.840Z,15.20
2019-06-26T21:45:13.601Z,15.83
2019-06-26T21:47:43.930Z,14.80
2019-06-26T21:50:13.897Z,14.77
2019-06-26T21:52:43.894Z,14.80
2019-06-26T21:55:14.190Z,15.30
2019-06-26T21:57:44.707Z,14.67
2019-06-26T22:00:15.442Z,15.70
2019-06-26T22:02:45.482Z,15.80
2019-06-26T22:05:16.020Z,16.00
2019-06-26T22:07:45.980Z,16.40
2019-06-26T22:10:16.612Z,15.15
2019-06-26T22:12:48.854Z,15.60
2019-06-26T22:15:18.529Z,14.63
2019-06-26T22:17:48.429Z,15.67
2019-06-26T22:20:18.768Z,15.00
2019-06-26T22:22:48.643Z,16.23
2019-06-26T22:25:18.648Z,16.57
2019-06-26T22:27:49.126Z,15.93
2019-06-26T22:30:20.368Z,16.00
2019-06-26T22:32:50.536Z,17.57
2019-06-26T22:35:21.396Z,16.67
2019-06-26T22:37:51.719Z,16.50
2019-06-26T22:40:21.971Z,15.93
2019-06-26T22:42:51.922Z,16.60
2019-06-26T22:45:21.957Z,15.90
2019-06-26T22:47:51.841Z,15.87
2019-06-26T22:50:21.897Z,16.97
2019-06-26T22:52:52.267Z,16.40
2019-06-26T22:55:22.662Z,16.30
2019-06-26T22:57:52.651Z,15.20
2019-06-26T23:00:22.293Z,16.77
2019-06-26T23:02:52.849Z,15.87
2019-06-26T23:05:25.942Z,15.63
2019-06-26T23:07:56.036Z,15.73
2019-06-26T23:10:26.728Z,16.47
2019-06-26T23:12:56.272Z,15.70
2019-06-26T23:15:25.833Z,15.70
2019-06-26T23:17:56.395Z,16.10
2019-06-26T23:20:26.324Z,15.90
2019-06-26T23:22:56.227Z,15.37
2019-06-26T23:25:26.455Z,15.83
2019-06-26T23:27:56.479Z,14.90
2019-06-26T23:30:26.082Z,15.17
2019-06-26T23:32:55.623Z,15.90
2019-06-26T23:35:25.201Z,14.00
2019-06-26T23:37:55.555Z,14.13
2019-06-26T23:40:25.777Z,14.20
2019-06-26T23:42:55.731Z,14.10
2019-06-26T23:45:25.446Z,14.50
2019-06-26T23:47:55.462Z,14.87
2019-06-26T23:50:25.140Z,13.50
2019-06-26T23:52:54.879Z,14.60
2019-06-26T23:55:24.434Z,14.10
2019-06-26T23:57:59.288Z,14.60
